createdAt,value
2023-02-19T18:25:29.585Z,99824.35
2023-02-19T18:27:44.581Z,99838.09
2023-02-19T18:29:53.933Z,99833.98
2023-02-19T18:32:05.487Z,99825.46
2023-02-19T18:34:22.425Z,99819.86
2023-02-19T18:36:30.741Z,99813.79
2023-02-19T18:38:37.790Z,99820.05
2023-02-19T18:40:43.621Z,99818.11
2023-02-19T18:42:51.455Z,99822.04
2023-02-19T18:44:58.120Z,99831.23
2023-02-19T18:47:07.894Z,99835.85
2023-02-19T18:49:15.282Z,99839.92
2023-02-19T18:51:30.686Z,99843.45
2023-02-19T18:53:39.010Z,99848.75
2023-02-19T18:55:48.178Z,99851.77
2023-02-19T18:57:55.664Z,99858.39
2023-02-19T19:00:02.705Z,99853.56
2023-02-19T19:02:10.901Z,99854.36
2023-02-19T19:04:19.378Z,99856.67
2023-02-19T19:06:32.845Z,99855.52
2023-02-19T19:08:39.969Z,99867.85
2023-02-19T19:10:46.035Z,99858.48
2023-02-19T19:12:53.636Z,99861.98
2023-02-19T19:15:00.538Z,99865.79
2023-02-19T19:17:06.948Z,99868.54
2023-02-19T19:19:13.646Z,99873.88
2023-02-19T19:21:21.352Z,99873.29
2023-02-19T19:23:34.790Z,99874.94
2023-02-19T19:25:44.816Z,99888.05
2023-02-19T19:27:55.584Z,99891.13
2023-02-19T19:30:04.272Z,99889.41
2023-02-19T19:32:12.840Z,99886.38
2023-02-19T19:34:26.371Z,99887.88
2023-02-19T19:36:36.290Z,99890.92
2023-02-19T19:38:43.966Z,99897.85
2023-02-19T19:40:53.380Z,99902.04
2023-02-19T19:43:00.410Z,99909.29
2023-02-19T19:45:09.372Z,99910.58
2023-02-19T19:47:16.174Z,99918.36
2023-02-19T19:49:25.581Z,99913.30
2023-02-19T19:51:36.398Z,99916.44
2023-02-19T19:53:43.615Z,99922.25
2023-02-19T19:55:50.622Z,99927.22
2023-02-19T19:57:57.318Z,99928.98
2023-02-19T20:00:05.319Z,99931.86
2023-02-19T20:02:21.493Z,99933.32
2023-02-19T20:04:28.817Z,99934.33
2023-02-19T20:06:39.189Z,99939.10
2023-02-19T20:08:46.113Z,99942.54
2023-02-19T20:10:52.603Z,99942.41
2023-02-19T20:12:59.168Z,99952.02
2023-02-19T20:15:05.991Z,99957.13
2023-02-19T20:17:16.399Z,99948.73
2023-02-19T20:19:23.511Z,99950.27
2023-02-19T20:21:34.813Z,99957.37
2023-02-19T20:23:46.965Z,99953.34
2023-02-19T20:25:57.483Z,99960.31
2023-02-19T20:28:08.444Z,99957.51
2023-02-19T20:30:24.107Z,99959.34
2023-02-19T20:32:31.705Z,99962.40
2023-02-19T20:34:42.254Z,99957.48
2023-02-19T20:36:56.772Z,99958.92
2023-02-19T20:39:03.131Z,99966.38
2023-02-19T20:41:14.683Z,99969.58
2023-02-19T20:43:24.499Z,99976.54
2023-02-19T20:45:34.030Z,99973.68
2023-02-19T20:47:48.342Z,99973.11
2023-02-19T20:49:57.952Z,99985.27
2023-02-19T20:52:06.236Z,99992.33
2023-02-19T20:54:12.730Z,99996.46
2023-02-19T20:56:19.862Z,99991.39
2023-02-19T20:58:26.401Z,99999.74
2023-02-19T21:00:32.941Z,100001.86
2023-02-19T21:02:39.066Z,100005.85
2023-02-19T21:04:47.167Z,100010.89
2023-02-19T21:06:53.959Z,100014.33
2023-02-19T21:09:01.123Z,100030.91
2023-02-19T21:11:09.180Z,100029.39
2023-02-19T21:13:15.560Z,100032.66
2023-02-19T21:15:23.991Z,100016.35
2023-02-19T21:17:30.933Z,100027.54
2023-02-19T21:19:36.818Z,100030.03
2023-02-19T21:21:42.394Z,100020.65
2023-02-19T21:23:49.284Z,100026.48
2023-02-19T21:25:54.782Z,100032.95
2023-02-19T21:28:01.234Z,100032.05
2023-02-19T21:30:10.880Z,100037.39
2023-02-19T21:32:18.249Z,100044.36
2023-02-19T21:34:26.364Z,100052.80
2023-02-19T21:36:31.143Z,100057.61
2023-02-19T21:38:36.404Z,100059.23
2023-02-19T21:40:43.576Z,100052.54
2023-02-19T21:42:49.310Z,100051.16
2023-02-19T21:44:55.636Z,100049.06
2023-02-19T21:47:00.899Z,100049.49
2023-02-19T21:49:06.520Z,100046.50
2023-02-19T21:51:11.416Z,100055.02
2023-02-19T21:53:16.766Z,100059.25
2023-02-19T21:55:21.946Z,100056.54
2023-02-19T21:57:28.312Z,100055.38
2023-02-19T21:59:33.165Z,100063.27
2023-02-19T22:01:39.542Z,100065.27
2023-02-19T22:03:44.678Z,100070.42
2023-02-19T22:05:49.383Z,100079.45
2023-02-19T22:07:54.188Z,100075.13
2023-02-19T22:09:58.985Z,100074.58
2023-02-19T22:12:07.095Z,100080.13
2023-02-19T22:14:11.786Z,100079.16
2023-02-19T22:16:16.799Z,100076.86
2023-02-19T22:18:21.509Z,100072.55
2023-02-19T22:20:26.184Z,100074.85
2023-02-19T22:22:30.820Z,100076.09
2023-02-19T22:24:35.510Z,100081.27
2023-02-19T22:26:40.138Z,100090.40
2023-02-19T22:28:44.826Z,100096.53
2023-02-19T22:30:49.605Z,100092.75
2023-02-19T22:32:54.540Z,100091.00
2023-02-19T22:34:59.266Z,100094.23
2023-02-19T22:37:09.855Z,100093.54
2023-02-19T22:39:20.335Z,100094.21
2023-02-19T22:41:25.497Z,100097.90
2023-02-19T22:43:30.185Z,100096.08
2023-02-19T22:45:37.677Z,100100.59
2023-02-19T22:47:42.308Z,100101.58
2023-02-19T22:49:47.019Z,100104.00
2023-02-19T22:51:57.696Z,100103.23
2023-02-19T22:54:02.422Z,100106.08
2023-02-19T22:56:07.656Z,100106.98
2023-02-19T22:58:12.331Z,100108.45
2023-02-19T23:00:19.613Z,100115.45
2023-02-19T23:02:24.311Z,100115.38
2023-02-19T23:04:29.044Z,100110.66
2023-02-19T23:06:35.521Z,100117.29
2023-02-19T23:08:43.497Z,100115.90
2023-02-19T23:10:48.275Z,100120.65
2023-02-19T23:12:52.892Z,100119.90
2023-02-19T23:14:57.566Z,100125.13
2023-02-19T23:17:02.241Z,100132.33
2023-02-19T23:19:07.905Z,100128.55
2023-02-19T23:21:13.642Z,100133.37
2023-02-19T23:23:18.366Z,100124.16
2023-02-19T23:25:23.394Z,100119.38
2023-02-19T23:27:28.234Z,100121.08
2023-02-19T23:29:32.963Z,100121.86
2023-02-19T23:31:37.877Z,100118.59
2023-02-19T23:33:43.009Z,100115.12
2023-02-19T23:35:47.650Z,100118.29
2023-02-19T23:37:52.467Z,100111.87
2023-02-19T23:39:57.120Z,100112.83
2023-02-19T23:42:01.810Z,100121.60
2023-02-19T23:44:07.166Z,100117.16
2023-02-19T23:46:15.886Z,100121.48
2023-02-19T23:48:20.674Z,100120.31
2023-02-19T23:50:25.446Z,100115.45
2023-02-19T23:52:30.024Z,100113.45
2023-02-19T23:54:34.903Z,100107.36
2023-02-19T23:56:39.547Z,100112.29
2023-02-19T23:58:44.192Z,100110.75
